Disclaimer

Please do not use the information listed here in-flight or in-navigation, as they are not provided to us by the airports but are provided by volunteers, so they might be outdated.

Search


Regions


Airport information page

No radio frequency information is available.

Airport informations:
Latitude: 64° 44' 05.82" N
Longitude: 177° 44' 29.34" E
Elevation: 194 feet - 59 meters
Operating hours: Remarks
Operating agency: Civil government, landing fees and diplomatic clearance may be required
Timezone: UTC+12(+13DT) - Last Sunday in March to last Sunday in October
Fuel: N/A

Runway information:
01/19 - 11483 x 197 feet< - >3500 x 60 meters

Recent METARs:
UHMA 180800Z 36005MPS 5000 -SN FEW007 SCT022 BKN035 M11/M13 Q1011 R01/////// NOSIG RMK END R01/01005MPS QFE754/1006
UHMA 180800Z 36005MPS 5000 -SN FEW007 SCT022 BKN035 M11/M13 Q1011 R01/////// NOSIG RMK END R01/01005MPS QFE754/1006
UHMA 180900Z 02005MPS 7000 -SN SCT003 BKN028 OVC049 M11/M12 Q1011 R01/////// NOSIG RMK END R01/02005MPS QFE754/1006

Airport on the map: